FLIGHT DETAILS
Pilot: ACV287 Karlo Siljevinac Aircraft: ALPHA SAAB GRIPEN 1 Distance: 711NM
Departure YBTL Arrival YBTL Duration 1.52
Validation Validated Type Charter Tail Number 39229
ZFW 7784 Block Fuel/Initial FOB 2,431/0 Flight Fuel 2,352
Passengers 0 Cargo 0 Alternate
Departure Time Cruise Speed Flight Level
Flight Type IFR Aircraft Type Weight Unit Kg
Date 2018-01-17 Pilot Comments Network IVAO
Crashed No Validator Comments Flight Rating 100

 ROUTE
ROUTE
REMARKS
 FLIGHT FAILURES
Crashed OK Beacon off & Engine Running Fail KIAS Above 250 below 10000 FT Fail
Lights OFF below 10000 FT Fail Lights ON above 10000 FT OK Stall OK
Overspeed OK Flight paused OK Refueling Fail
Slew detected OK Taxi & Taxi lights off Fail Take off & lights off Fail
Landing & lights off Fail Landed in not planned airport OK Taxi Speed Fail
Wrong altimeter in Take off Fail Wrong altimeter in Landing Fail
 LANDING ANALYSIS
Landing wind 109º/15 kt Landing heading 61
Landing VS: -389.09 ft/min Landing IAS: 93.03 kt
Landing Force G 3.6 G Landing Bank -2.8
Landing Pitch 4.1 Landing Flaps 90
Navigation Lights OFF Landing Lights OFF
Beacon Lights OFF Strobe Lights OFF
 FLIGHT MAP
 ALTITUDE CHART
 FLIGHT FINANCIAL REPORT
 MAIN EVENTS
DATE EVENTIASALTITUDE
2018-01-17 09:27:34 SIM ACARS version 1.4.0024
2018-01-17 09:27:34 BOARDING024
2018-01-17 09:27:34 STARTING ENGINE 1 024
2018-01-17 09:27:34 BEACON LIGHT OFF & ENGINE ON024
2018-01-17 09:29:21 TAXI TO THE RWY 824
2018-01-17 09:29:21 TAXING WITH TAXI LIGHTS OFF824
2018-01-17 09:30:50 ROLLING FOR TAKE OFF5224
2018-01-17 09:30:57 TAKE OFF13724
2018-01-17 09:30:58 TAKE OFF WITH LIGHTS OFF13724
2018-01-17 09:30:58 LIGHTS OFF BELOW 10000 ft13724
2018-01-17 09:30:58 GEAR UP14225
2018-01-17 09:31:12 IAS ABOVE 250 KNOTS BELOW 10000 ft262803
2018-01-17 09:31:14 REFUELING -1.28%279936
2018-01-17 09:31:35 REFUELING -1.00%3463095
2018-01-17 09:31:54 REFUELING -0.57%3933210
2018-01-17 09:32:14 REFUELING -0.55%4273059
2018-01-17 09:32:18 DESCEND4313039
2018-01-17 09:32:35 REFUELING -0.55%4482816
2018-01-17 09:33:14 REFUELING -0.55%4632304
2018-01-17 09:33:35 REFUELING -0.58%4662437
2018-01-17 09:33:48 CLIMBING4672550
2018-01-17 09:33:54 REFUELING -0.54%4682598
2018-01-17 09:34:14 REFUELING -0.55%4692645
2018-01-17 09:34:28 CRUISE4702655
2018-01-17 09:34:35 REFUELING -0.56%4702612
2018-01-17 09:34:58 DESCEND4782315
2018-01-17 09:35:14 REFUELING -0.51%4782038
2018-01-17 09:35:35 REFUELING -0.52%4821776
2018-01-17 09:36:14 REFUELING -0.56%4741653
2018-01-17 09:36:17 CRUISE4741653
2018-01-17 09:36:35 REFUELING -0.52%4721652
2018-01-17 09:36:54 REFUELING -0.52%4711651
2018-01-17 09:37:14 REFUELING -0.54%4691652
2018-01-17 09:37:38 REFUELING -0.64%4691652
2018-01-17 09:38:14 REFUELING -0.54%4701654
2018-01-17 09:38:35 REFUELING -0.57%4701650
2018-01-17 09:38:54 REFUELING -0.52%4701651
2018-01-17 09:39:14 REFUELING -0.54%4701652
2018-01-17 09:39:35 REFUELING -0.57%4701650
2018-01-17 09:39:54 REFUELING -0.52%4701653
2018-01-17 09:40:14 REFUELING -0.54%4701652
2018-01-17 09:40:35 REFUELING -0.56%4701650
2018-01-17 09:40:54 REFUELING -0.52%4701653
2018-01-17 09:41:14 REFUELING -0.54%4701651
2018-01-17 09:41:35 REFUELING -0.56%4701652
2018-01-17 09:41:54 REFUELING -0.52%4701653
2018-01-17 09:42:14 REFUELING -0.55%4701651
2018-01-17 09:42:35 REFUELING -0.55%4701586
2018-01-17 09:42:48 DESCEND4701474
2018-01-17 09:42:54 REFUELING -0.51%4691418
2018-01-17 09:43:14 REFUELING -0.52%4701251
2018-01-17 09:43:35 REFUELING -0.55%4701162
2018-01-17 09:43:48 CRUISE4701154
2018-01-17 09:43:54 REFUELING -0.52%4701152
2018-01-17 09:44:14 REFUELING -0.54%4701151
2018-01-17 09:44:35 REFUELING -0.56%4701151
2018-01-17 09:44:54 REFUELING -0.52%4701151
2018-01-17 09:45:14 REFUELING -0.55%4701151
2018-01-17 09:45:35 REFUELING -0.56%4701151
2018-01-17 09:45:54 REFUELING -0.51%4701152
2018-01-17 09:46:14 REFUELING -0.55%4701151
2018-01-17 09:46:35 REFUELING -0.56%4691152
2018-01-17 09:46:54 REFUELING -0.52%4701150
2018-01-17 09:47:14 REFUELING -0.54%4701153
2018-01-17 09:47:35 REFUELING -0.57%4721153
2018-01-17 09:47:54 REFUELING -0.54%4761150
2018-01-17 09:48:14 REFUELING -0.56%4781153
2018-01-17 09:48:35 REFUELING -0.58%4791151
2018-01-17 09:48:54 REFUELING -0.56%4791341
2018-01-17 09:49:14 REFUELING -0.56%4791407
2018-01-17 09:49:35 REFUELING -0.60%4781513
2018-01-17 09:49:48 CLIMBING4781588
2018-01-17 09:49:54 REFUELING -0.55%4751636
2018-01-17 09:50:14 REFUELING -0.56%4781650
2018-01-17 09:50:18 CRUISE4781651
2018-01-17 09:50:35 REFUELING -0.59%4791652
2018-01-17 09:50:54 REFUELING -0.53%4791651
2018-01-17 09:51:14 REFUELING -0.56%4801651
2018-01-17 09:51:35 REFUELING -0.58%4791653
2018-01-17 09:51:54 REFUELING -0.54%4801650
2018-01-17 09:52:14 REFUELING -0.56%4801652
2018-01-17 09:52:35 REFUELING -0.58%4801652
2018-01-17 09:52:54 REFUELING -0.54%4801650
2018-01-17 09:53:14 REFUELING -0.55%4801653
2018-01-17 09:53:35 REFUELING -0.58%4801651
2018-01-17 09:53:54 REFUELING -0.54%4801650
2018-01-17 09:54:14 REFUELING -0.56%4801653
2018-01-17 09:54:35 REFUELING -0.58%4801651
2018-01-17 09:54:54 REFUELING -0.54%4801651
2018-01-17 09:55:14 REFUELING -0.56%4801653
2018-01-17 09:55:34 REFUELING -0.56%4801650
2018-01-17 09:55:54 REFUELING -0.55%4801652
2018-01-17 09:56:14 REFUELING -0.56%4801652
2018-01-17 09:56:35 REFUELING -0.58%4801649
2018-01-17 09:56:54 REFUELING -0.54%4801652
2018-01-17 09:57:14 REFUELING -0.55%4801652
2018-01-17 09:57:35 REFUELING -0.58%4801650
2018-01-17 09:57:54 REFUELING -0.54%4801652
2018-01-17 09:58:14 REFUELING -0.56%4801652
2018-01-17 09:58:35 REFUELING -0.58%4801650
2018-01-17 09:58:54 REFUELING -0.54%4801652
2018-01-17 09:59:14 REFUELING -0.55%4801580
2018-01-17 09:59:35 REFUELING -0.55%4871299
2018-01-17 09:59:38 DESCEND4871268
2018-01-17 09:59:54 REFUELING -0.53%4841172
2018-01-17 10:00:14 REFUELING -0.55%4821153
2018-01-17 10:00:18 CRUISE4811152
2018-01-17 10:00:35 REFUELING -0.58%4801150
2018-01-17 10:00:54 REFUELING -0.53%4791149
2018-01-17 10:01:14 REFUELING -0.56%4801148
2018-01-17 10:01:35 REFUELING -0.58%4801150
2018-01-17 10:01:54 REFUELING -0.53%4801148
2018-01-17 10:02:14 REFUELING -0.56%4801148
2018-01-17 10:02:35 REFUELING -0.58%4801150
2018-01-17 10:02:54 REFUELING -0.54%4801147
2018-01-17 10:03:14 REFUELING -0.56%4801149
2018-01-17 10:03:35 REFUELING -0.57%4801150
2018-01-17 10:03:54 REFUELING -0.54%4801148
2018-01-17 10:04:14 REFUELING -0.56%4801150
2018-01-17 10:04:35 REFUELING -0.57%4801151
2018-01-17 10:04:54 REFUELING -0.54%4801149
2018-01-17 10:05:14 REFUELING -0.56%4801151
2018-01-17 10:05:35 REFUELING -0.57%4801150
2018-01-17 10:05:54 REFUELING -0.54%4801150
2018-01-17 10:06:14 REFUELING -0.56%4801152
2018-01-17 10:06:35 REFUELING -0.58%4801150
2018-01-17 10:06:54 REFUELING -0.54%4801151
2018-01-17 10:07:14 REFUELING -0.55%4801152
2018-01-17 10:08:04 REFUELING -1.40%4801150
2018-01-17 10:08:35 REFUELING -0.57%4781142
2018-01-17 10:08:54 REFUELING -0.52%4751153
2018-01-17 10:09:14 REFUELING -0.57%4731274
2018-01-17 10:09:35 REFUELING -0.70%4791614
2018-01-17 10:09:54 REFUELING -0.56%4801913
2018-01-17 10:10:08 DESCEND4751754
2018-01-17 10:10:14 REFUELING -0.54%4801679
2018-01-17 10:10:35 REFUELING -0.55%4891444
2018-01-17 10:10:54 REFUELING -0.51%4911241
2018-01-17 10:11:14 REFUELING -0.55%4861161
2018-01-17 10:11:28 CRUISE4831152
2018-01-17 10:11:35 REFUELING -0.57%4831151
2018-01-17 10:11:54 REFUELING -0.53%4811151
2018-01-17 10:12:14 REFUELING -0.56%4801151
2018-01-17 10:12:35 REFUELING -0.57%4801150
2018-01-17 10:12:54 REFUELING -0.54%4801150
2018-01-17 10:13:14 REFUELING -0.56%4801150
2018-01-17 10:13:35 REFUELING -0.57%4801151
2018-01-17 10:13:54 REFUELING -0.54%4801150
2018-01-17 10:14:14 REFUELING -0.55%4801149
2018-01-17 10:14:35 REFUELING -0.57%4801150
2018-01-17 10:14:54 REFUELING -0.54%4801150
2018-01-17 10:15:14 REFUELING -0.55%4801149
2018-01-17 10:15:35 REFUELING -0.58%4801151
2018-01-17 10:15:54 REFUELING -0.54%4801148
2018-01-17 10:16:14 REFUELING -0.56%4801151
2018-01-17 10:16:35 REFUELING -0.57%4811100
2018-01-17 10:16:54 REFUELING -0.55%4801163
2018-01-17 10:17:14 REFUELING -0.55%4811158
2018-01-17 10:17:35 REFUELING -0.57%4811103
2018-01-17 10:17:54 REFUELING -0.53%4811097
2018-01-17 10:18:14 REFUELING -0.56%4801096
2018-01-17 10:18:35 REFUELING -0.57%4801104
2018-01-17 10:18:54 REFUELING -0.55%4791262
2018-01-17 10:19:14 REFUELING -0.56%4791293
2018-01-17 10:19:35 REFUELING 82.29%4791285
2018-01-17 10:20:14 REFUELING -0.56%4801297
2018-01-17 10:20:35 REFUELING -0.58%4801295
2018-01-17 10:20:54 REFUELING -0.55%4801296
2018-01-17 10:21:14 REFUELING -0.55%4801297
2018-01-17 10:21:35 REFUELING -0.59%4801294
2018-01-17 10:21:54 REFUELING -0.54%4801297
2018-01-17 10:22:14 REFUELING -0.56%4801297
2018-01-17 10:22:35 REFUELING -0.59%4801295
2018-01-17 10:22:54 REFUELING -0.54%4801297
2018-01-17 10:23:14 REFUELING -0.57%4801296
2018-01-17 10:23:35 REFUELING -0.57%4801295
2018-01-17 10:23:54 REFUELING -0.55%4801297
2018-01-17 10:24:14 REFUELING -0.56%4801296
2018-01-17 10:24:35 REFUELING -0.58%4801295
2018-01-17 10:24:54 REFUELING -0.54%4791297
2018-01-17 10:25:14 REFUELING -0.57%4791296
2018-01-17 10:25:35 REFUELING -0.58%4801296
2018-01-17 10:25:54 REFUELING -0.54%4791297
2018-01-17 10:26:14 REFUELING -0.56%4791296
2018-01-17 10:26:35 REFUELING -0.58%4801297
2018-01-17 10:26:54 REFUELING -0.55%4801296
2018-01-17 10:27:14 REFUELING -0.55%4801295
2018-01-17 10:27:35 REFUELING -0.59%4801297
2018-01-17 10:27:54 REFUELING -0.55%4801296
2018-01-17 10:28:14 REFUELING -0.55%4801295
2018-01-17 10:28:35 REFUELING -0.58%4801297
2018-01-17 10:28:54 REFUELING -0.54%4791293
2018-01-17 10:29:14 REFUELING -0.56%4801288
2018-01-17 10:29:34 REFUELING -0.57%4801290
2018-01-17 10:29:54 REFUELING -0.55%4801288
2018-01-17 10:30:14 REFUELING -0.56%4801289
2018-01-17 10:30:34 REFUELING -0.57%4801293
2018-01-17 10:30:54 REFUELING -0.56%4801296
2018-01-17 10:31:14 REFUELING -0.56%4801296
2018-01-17 10:31:35 REFUELING -0.58%4801297
2018-01-17 10:31:54 REFUELING -0.54%4801292
2018-01-17 10:32:14 REFUELING -0.59%4841279
2018-01-17 10:32:34 REFUELING -0.74%4851120
2018-01-17 10:32:54 REFUELING -0.57%4821270
2018-01-17 10:33:14 REFUELING -0.55%4811183
2018-01-17 10:33:35 REFUELING -0.59%4811283
2018-01-17 10:33:54 REFUELING -0.54%4801295
2018-01-17 10:34:14 REFUELING -0.55%4801296
2018-01-17 10:34:34 REFUELING -0.57%4801296
2018-01-17 10:34:54 REFUELING -0.55%4801293
2018-01-17 10:35:14 REFUELING -0.56%4801293
2018-01-17 10:35:34 REFUELING -0.57%4801291
2018-01-17 10:35:54 REFUELING -0.55%4801293
2018-01-17 10:36:14 REFUELING -0.56%4801293
2018-01-17 10:36:35 REFUELING -0.57%4801290
2018-01-17 10:36:54 REFUELING -0.54%4801293
2018-01-17 10:37:14 REFUELING -0.56%4801290
2018-01-17 10:37:34 REFUELING -0.56%4801291
2018-01-17 10:37:54 REFUELING -0.55%4801293
2018-01-17 10:38:14 REFUELING -0.56%4811291
2018-01-17 10:38:35 REFUELING -0.58%4801294
2018-01-17 10:38:54 REFUELING -0.54%4801295
2018-01-17 10:39:14 REFUELING -0.56%4801294
2018-01-17 10:39:34 REFUELING -0.57%4801296
2018-01-17 10:39:54 REFUELING -0.55%4801295
2018-01-17 10:40:14 REFUELING -0.57%4801409
2018-01-17 10:40:18 CLIMBING4801444
2018-01-17 10:40:34 REFUELING -0.58%4811579
2018-01-17 10:40:54 REFUELING -0.55%4801598
2018-01-17 10:40:58 CRUISE4801597
2018-01-17 10:41:14 REFUELING -0.55%4801597
2018-01-17 10:41:35 REFUELING -0.58%4801597
2018-01-17 10:41:54 REFUELING -0.55%4791637
2018-01-17 10:42:14 REFUELING -0.56%4791630
2018-01-17 10:42:34 REFUELING -0.57%4781771
2018-01-17 10:42:54 REFUELING -0.56%4781797
2018-01-17 10:43:14 REFUELING -0.55%4781793
2018-01-17 10:43:35 REFUELING -0.58%4781798
2018-01-17 10:43:54 REFUELING -0.53%4781793
2018-01-17 10:44:14 REFUELING -0.56%4791791
2018-01-17 10:44:28 CLIMBING4781857
2018-01-17 10:44:34 REFUELING -0.57%4771931
2018-01-17 10:44:54 REFUELING -0.57%4772066
2018-01-17 10:45:14 REFUELING -0.56%4782092
2018-01-17 10:45:18 CRUISE4782093
2018-01-17 10:45:34 REFUELING -0.57%4782162
2018-01-17 10:45:54 REFUELING -0.57%4752390
2018-01-17 10:45:58 CLIMBING4752420
2018-01-17 10:46:14 REFUELING -0.57%4762556
2018-01-17 10:46:35 REFUELING -0.59%4772664
2018-01-17 10:46:54 REFUELING -0.56%4772942
2018-01-17 10:47:14 REFUELING -0.56%4773078
2018-01-17 10:47:18 CRUISE4773083
2018-01-17 10:47:34 REFUELING -0.55%4773103
2018-01-17 10:47:54 REFUELING -0.55%4783095
2018-01-17 10:48:14 REFUELING -0.55%4783101
2018-01-17 10:48:35 REFUELING -0.56%4803009
2018-01-17 10:48:48 DESCEND4802901
2018-01-17 10:48:54 REFUELING -0.52%4812831
2018-01-17 10:49:14 REFUELING -0.53%4852491
2018-01-17 10:49:34 REFUELING -0.55%4892173
2018-01-17 10:49:54 REFUELING -0.54%4882027
2018-01-17 10:50:14 REFUELING -0.55%4852005
2018-01-17 10:50:18 CRUISE4842000
2018-01-17 10:50:34 REFUELING -0.57%4832055
2018-01-17 10:50:54 REFUELING -0.55%4822092
2018-01-17 10:51:14 REFUELING -0.55%4812097
2018-01-17 10:51:35 REFUELING -0.57%4802097
2018-01-17 10:51:54 REFUELING -0.54%4802096
2018-01-17 10:52:14 REFUELING -0.53%4761809
2018-01-17 10:52:28 DESCEND4801688
2018-01-17 10:52:34 REFUELING -0.55%4791644
2018-01-17 10:52:54 REFUELING -0.54%4771601
2018-01-17 10:53:08 CRUISE4781597
2018-01-17 10:53:14 REFUELING -0.56%4781597
2018-01-17 10:53:35 REFUELING -0.57%4791596
2018-01-17 10:53:54 REFUELING -0.54%4781595
2018-01-17 10:54:14 REFUELING -0.56%4791597
2018-01-17 10:54:34 REFUELING -0.56%4791596
2018-01-17 10:54:54 REFUELING -0.55%4781595
2018-01-17 10:55:14 REFUELING -0.56%4791598
2018-01-17 10:55:34 REFUELING -0.57%4791596
2018-01-17 10:55:54 REFUELING -0.54%4791595
2018-01-17 10:56:14 REFUELING -0.55%4791596
2018-01-17 10:56:35 REFUELING -0.58%4791593
2018-01-17 10:56:54 REFUELING -0.54%4791596
2018-01-17 10:57:14 REFUELING -0.56%4791597
2018-01-17 10:57:34 REFUELING -0.56%4791595
2018-01-17 10:57:54 REFUELING -0.55%4801598
2018-01-17 10:58:14 REFUELING -0.56%4781637
2018-01-17 10:58:35 REFUELING -0.58%4781684
2018-01-17 10:58:54 REFUELING -0.53%4801650
2018-01-17 10:58:58 DESCEND4801620
2018-01-17 10:59:14 REFUELING -0.57%4881477
2018-01-17 10:59:34 REFUELING -0.55%4871333
2018-01-17 10:59:48 CLIMBING4771482
2018-01-17 10:59:54 REFUELING -0.55%4741541
2018-01-17 11:00:14 REFUELING -0.55%4821382
2018-01-17 11:00:18 CRUISE4811381
2018-01-17 11:00:34 REFUELING -0.54%4741461
2018-01-17 11:00:54 REFUELING -0.53%4721225
2018-01-17 11:01:14 REFUELING -0.52%481809
2018-01-17 11:01:35 REFUELING -0.56%483684
2018-01-17 11:01:54 REFUELING -0.51%482386
2018-01-17 11:02:14 REFUELING -0.55%482258
2018-01-17 11:02:34 REFUELING -0.57%480280
2018-01-17 11:02:54 REFUELING -0.55%480315
2018-01-17 11:03:06 GEAR DOWN436332
2018-01-17 11:03:07 FLAPS EXTENSION 100 % 429331
2018-01-17 11:03:28 CLIMBING129865
2018-01-17 11:03:54 REFUELING -0.52%140871
2018-01-17 11:04:14 REFUELING -0.54%143673
2018-01-17 11:04:18 DESCEND144634
2018-01-17 11:04:56 LANDING WITH LANDING LIGHTS OFF9324
2018-01-17 11:04:56 LANDING9324
2018-01-17 11:05:07 TAXI TO THE GATE2024
2018-01-17 11:06:00 FLAPS EXTENSION 0 % 1024
2018-01-17 11:06:09 TAXI SPEED ABOVE 25 KTS2424
 ACARS DATA
DATE IASGSALTITUDEFUEL CONSUMED OATFLIGHT STATUS
2018-01-17 09:28:340023615BOARDING
2018-01-17 09:29:342119231712TAXI TO THE RWY
2018-01-17 09:30:34012232912TAXI TO THE RWY
2018-01-17 09:31:34346342309411619CLIMBING
2018-01-17 09:32:34447464281517020DESCEND
2018-01-17 09:33:34466477243622121DESCEND
2018-01-17 09:34:34470480261127320CRUISE
2018-01-17 09:35:34482464177532222DESCEND
2018-01-17 09:36:34472454165137221CRUISE
2018-01-17 09:37:34468453165142420CRUISE
2018-01-17 09:38:34469454164947620CRUISE
2018-01-17 09:39:34469454164952819CRUISE
2018-01-17 09:40:34469455165058019CRUISE
2018-01-17 09:41:34469455165163219CRUISE
2018-01-17 09:42:34469456158668318CRUISE
2018-01-17 09:43:34470456116273415DESCEND
2018-01-17 09:44:34470455115178614CRUISE
2018-01-17 09:45:34469455115183814CRUISE
2018-01-17 09:46:34468455115288913CRUISE
2018-01-17 09:47:34472459115294213CRUISE
2018-01-17 09:48:34479464115099613CRUISE
2018-01-17 09:49:344784661512105014CRUISE
2018-01-17 09:50:344784711652110517CRUISE
2018-01-17 09:51:344794721653115818CRUISE
2018-01-17 09:52:344794731652121218CRUISE
2018-01-17 09:53:344794731651126519CRUISE
2018-01-17 09:54:344794731651131919CRUISE
2018-01-17 09:55:344794741650137219CRUISE
2018-01-17 09:56:344794741649142620CRUISE
2018-01-17 09:57:344794741649147921CRUISE
2018-01-17 09:58:344794751650153321CRUISE
2018-01-17 09:59:344874721298158512CRUISE
2018-01-17 10:00:344794671150163813CRUISE
2018-01-17 10:01:344794671149169214CRUISE
2018-01-17 10:02:344804681150174514CRUISE
2018-01-17 10:03:344804671149179813CRUISE
2018-01-17 10:04:344804671150185213CRUISE
2018-01-17 10:05:344804661150190512CRUISE
2018-01-17 10:06:344804661149195912CRUISE
2018-01-17 10:07:344804661149201212CRUISE
2018-01-17 10:08:344784661141206612CRUISE
2018-01-17 10:09:344794761614212323CRUISE
2018-01-17 10:10:344894791443217618DESCEND
2018-01-17 10:11:344824661151222812CRUISE
2018-01-17 10:12:344794641150228112CRUISE
2018-01-17 10:13:344794651150233513CRUISE
2018-01-17 10:14:344794651149238813CRUISE
2018-01-17 10:15:344794651151244113CRUISE
2018-01-17 10:16:344804651099249413CRUISE
2018-01-17 10:17:344804641102254812CRUISE
2018-01-17 10:18:344804631103260112CRUISE
2018-01-17 10:19:344794651284612CRUISE
2018-01-17 10:20:3448046512955812CRUISE
2018-01-17 10:21:34479465129411212CRUISE
2018-01-17 10:22:34480465129416612CRUISE
2018-01-17 10:23:34480465129522012CRUISE
2018-01-17 10:24:34480465129527412CRUISE
2018-01-17 10:25:34479466129632812CRUISE
2018-01-17 10:26:34479467129638213CRUISE
2018-01-17 10:27:34479467129743612CRUISE
2018-01-17 10:28:34479467129748912CRUISE
2018-01-17 10:29:34480467129054313CRUISE
2018-01-17 10:30:34480467129259712CRUISE
2018-01-17 10:31:34479467129665112CRUISE
2018-01-17 10:32:34484453112071112CRUISE
2018-01-17 10:33:34480449128376412CRUISE
2018-01-17 10:34:34480449129681912CRUISE
2018-01-17 10:35:34480449129087213CRUISE
2018-01-17 10:36:34480449129092613CRUISE
2018-01-17 10:37:34480449129098013CRUISE
2018-01-17 10:38:344804481294103412CRUISE
2018-01-17 10:39:344804481295108712CRUISE
2018-01-17 10:40:344804481578114212CLIMBING
2018-01-17 10:41:344794481596119512CRUISE
2018-01-17 10:42:344784491770124914CRUISE
2018-01-17 10:43:344784531798130315CRUISE
2018-01-17 10:44:344774551931135718CLIMBING
2018-01-17 10:45:344784602161141121CRUISE
2018-01-17 10:46:344774672663146626CLIMBING
2018-01-17 10:47:344764733103152025CRUISE
2018-01-17 10:48:344794763008157325CRUISE
2018-01-17 10:49:344884702172162423DESCEND
2018-01-17 10:50:344824612055167721CRUISE
2018-01-17 10:51:344804592096173122CRUISE
2018-01-17 10:52:344784611643178218DESCEND
2018-01-17 10:53:344794641596183518CRUISE
2018-01-17 10:54:344794671596188918CRUISE
2018-01-17 10:55:344794691596194319CRUISE
2018-01-17 10:56:344794701592199619CRUISE
2018-01-17 10:57:344794721595204920CRUISE
2018-01-17 10:58:344774741684210321CRUISE
2018-01-17 10:59:344864671332215618DESCEND
2018-01-17 11:00:344734691460220919CRUISE
2018-01-17 11:01:34482450684226012CRUISE
2018-01-17 11:02:34479445280231212CRUISE
2018-01-17 11:03:34130115855235113CLIMBING
2018-01-17 11:04:34131121320239812DESCEND
2018-01-17 11:05:3425923241213TAXI TO THE GATE
2018-01-17 11:06:34272623242313TAXI TO THE GATE